New Berlinville, Pennsylvania
Current Conditions -  °F | °C
As of 1:54 AM on Wednesday 22 Oct 2014 (Local Time) from KPTW Reporting Station
Overcast Overcast  
Wind Chill: 53°   Ceiling: 9000
Heat Index: 53°   Visibility: 10mi
Dew Point: 49°   Wind: 7mph
Humidity: 86%   Direction: 20°NNE
Pressure: 29.9"   Gusts: NA
Location:  40.35°N, 75.63°W
Report Text: KPTW 220554Z AUTO 02006KT 10SM SCT048 BKN090 OVC100 12/09 A2990 RMK AO2 SLP120 T01170094 10150 20117 56006
Loading
Personal Weather Stations






























Interactive Weather Map
Tropical Storm Tracking
New forecast layout! Learn more

10-Day Weather Forecast

Advertisements
Track Severe Weather on mobile